createdAt,value
2022-10-19T00:25:31.086Z,14
2022-10-19T00:54:26.850Z,17
2022-10-19T01:23:14.774Z,20
2022-10-19T01:52:13.861Z,24
2022-10-19T02:21:09.146Z,27
2022-10-19T02:49:59.497Z,26
2022-10-19T03:18:55.007Z,28
2022-10-19T03:47:57.034Z,22
2022-10-19T04:16:56.529Z,21
2022-10-19T04:45:56.661Z,23
2022-10-19T05:15:00.441Z,25
2022-10-19T05:43:44.555Z,21
2022-10-19T06:12:41.861Z,21
2022-10-19T06:41:31.766Z,22
2022-10-19T07:10:23.171Z,23
2022-10-19T07:39:28.430Z,24
2022-10-19T08:08:22.300Z,25
2022-10-19T08:36:51.177Z,23
2022-10-19T09:05:09.844Z,23
2022-10-19T09:33:32.394Z,20
2022-10-19T10:01:56.533Z,32
2022-10-19T10:30:18.746Z,24
2022-10-19T10:58:36.993Z,29
2022-10-19T11:27:05.711Z,29
2022-10-19T11:55:33.309Z,25
2022-10-19T12:23:31.675Z,23
2022-10-19T12:52:01.925Z,23
2022-10-19T13:20:24.855Z,19
2022-10-19T13:48:48.399Z,16
2022-10-19T14:17:13.324Z,17
2022-10-19T14:45:29.465Z,13
2022-10-19T15:13:46.296Z,8
2022-10-19T15:42:05.868Z,10
2022-10-19T16:10:20.106Z,11
2022-10-19T16:39:05.013Z,10
2022-10-19T17:07:56.563Z,10
2022-10-19T17:36:50.113Z,11
2022-10-19T18:05:30.633Z,14
2022-10-19T18:34:13.624Z,17
2022-10-19T19:03:14.093Z,16
2022-10-19T19:31:58.724Z,17
2022-10-19T20:01:07.732Z,14
2022-10-19T20:29:33.310Z,19
2022-10-19T20:57:50.329Z,20
2022-10-19T21:26:12.478Z,23
2022-10-19T21:54:26.578Z,24
2022-10-19T22:23:20.134Z,18
2022-10-19T22:52:23.913Z,23
2022-10-19T23:21:29.321Z,25
2022-10-19T23:50:22.438Z,39
